Time;durP1;ratioP1;P1;durP2;ratioP2;P2;SDS_P1;SDS_P2;PMS_P1;PMS_P2;Temp;Humidity;BMP_temperature;BMP_pressure;BME280_temperature;BME280_humidity;BME280_pressure;Samples;Min_cycle;Max_cycle;Signal;HPM_P1;HPM_P2
2022/04/11 00:00:51;;;;;;;6.53;5.85;;;;;;;;;;5052946;28;20104;-78
2022/04/11 00:03:17;;;;;;;6.47;5.45;;;;;;;;;;5052893;28;20383;-78
2022/04/11 00:05:43;;;;;;;5.97;5.35;;;;;;;;;;5052815;28;20033;-79
2022/04/11 00:08:09;;;;;;;6.57;5.78;;;;;;;;;;5054640;28;20112;-80
2022/04/11 00:10:35;;;;;;;7.25;6.38;;;;;;;;;;5056519;28;20067;-79
2022/04/11 00:13:02;;;;;;;8.40;5.40;;;;;;;;;;5056484;28;20029;-80
2022/04/11 00:15:29;;;;;;;8.60;5.70;;;;;;;;;;5056444;28;20092;-78
2022/04/11 00:17:55;;;;;;;6.90;6.18;;;;;;;;;;5056368;28;20021;-81
2022/04/11 00:20:21;;;;;;;7.53;6.38;;;;;;;;;;5056292;28;20487;-78
2022/04/11 00:22:47;;;;;;;6.22;5.22;;;;;;;;;;5055357;28;20036;-78
2022/04/11 00:25:13;;;;;;;6.72;5.93;;;;;;;;;;5056335;28;20021;-80
2022/04/11 00:27:42;;;;;;;6.55;5.43;;;;;;;;;;5056067;28;20025;-78
2022/04/11 00:30:08;;;;;;;7.15;5.88;;;;;;;;;;5056216;28;20356;-80
2022/04/11 00:32:39;;;;;;;6.57;5.93;;;;;;;;;;5054716;28;20388;-81
2022/04/11 00:35:06;;;;;;;8.48;5.95;;;;;;;;;;5056025;28;20071;-80
2022/04/11 00:37:32;;;;;;;6.82;5.72;;;;;;;;;;5056033;28;20112;-81
2022/04/11 00:39:58;;;;;;;6.60;6.10;;;;;;;;;;5056043;28;20468;-80
2022/04/11 00:42:28;;;;;;;6.25;5.65;;;;;;;;;;5054596;28;20078;-77
2022/04/11 00:44:56;;;;;;;7.20;6.07;;;;;;;;;;5054598;28;20028;-80
2022/04/11 00:47:22;;;;;;;7.28;6.07;;;;;;;;;;5056149;28;20057;-78
2022/04/11 00:49:49;;;;;;;6.50;5.90;;;;;;;;;;5055972;28;20023;-78
2022/04/11 00:52:16;;;;;;;7.00;5.78;;;;;;;;;;5055701;28;20032;-78
2022/04/11 00:54:42;;;;;;;6.10;5.50;;;;;;;;;;5055793;28;20036;-80
2022/04/11 00:57:09;;;;;;;6.28;5.68;;;;;;;;;;5055791;28;20032;-81
2022/04/11 00:59:35;;;;;;;6.75;6.03;;;;;;;;;;5055426;28;20459;-82
2022/04/11 01:02:06;;;;;;;7.38;6.10;;;;;;;;;;5053950;28;20388;-79
2022/04/11 01:04:32;;;;;;;6.53;4.63;;;;;;;;;;5055623;28;20032;-80
2022/04/11 01:06:58;;;;;;;6.13;5.53;;;;;;;;;;5055619;28;20151;-81
2022/04/11 01:09:24;;;;;;;5.75;5.15;;;;;;;;;;5055330;28;20021;-78
2022/04/11 01:11:51;;;;;;;6.20;5.60;;;;;;;;;;5055436;28;20032;-84
2022/04/11 01:14:29;;;;;;;5.85;4.45;;;;;;;;;;5054097;28;20523;-80
2022/04/11 01:16:59;;;;;;;7.00;5.50;;;;;;;;;;5055638;28;20036;-83
2022/04/11 01:19:27;;;;;;;6.63;5.78;;;;;;;;;;5054277;28;20025;-79
2022/04/11 01:21:53;;;;;;;5.40;4.60;;;;;;;;;;5055339;28;20021;-83
2022/04/11 01:24:20;;;;;;;6.30;5.65;;;;;;;;;;5055183;28;20025;-80
2022/04/11 01:26:50;;;;;;;10.55;5.50;;;;;;;;;;5055150;28;20384;-81
2022/04/11 01:29:19;;;;;;;6.63;4.28;;;;;;;;;;5055093;28;20025;-80
2022/04/11 01:31:45;;;;;;;6.30;3.95;;;;;;;;;;5055113;28;20029;-81
2022/04/11 01:34:21;;;;;;;5.13;3.78;;;;;;;;;;5055070;28;20048;-83
2022/04/11 01:36:58;;;;;;;;;;;;;;;;;;;;;
2022/04/11 01:39:26;;;;;;;4.82;3.63;;;;;;;;;;5054835;28;20033;-76
2022/04/11 01:41:55;;;;;;;5.43;4.32;;;;;;;;;;5053397;28;20111;-79
2022/04/11 01:44:21;;;;;;;4.25;3.25;;;;;;;;;;5054855;28;20036;-82
2022/04/11 01:46:50;;;;;;;3.67;3.25;;;;;;;;;;5053467;28;20035;-81
2022/04/11 01:49:16;;;;;;;6.50;3.92;;;;;;;;;;5054916;28;20401;-80
2022/04/11 01:51:42;;;;;;;4.45;3.58;;;;;;;;;;5054471;28;20111;-80
2022/04/11 01:54:10;;;;;;;3.88;2.90;;;;;;;;;;5053464;28;20368;-81
2022/04/11 01:56:36;;;;;;;5.82;3.28;;;;;;;;;;5054721;28;20029;-82
2022/04/11 01:59:03;;;;;;;5.47;3.78;;;;;;;;;;5053079;28;20048;-82
2022/04/11 02:01:29;;;;;;;5.30;4.18;;;;;;;;;;5053083;28;20024;-82
2022/04/11 02:03:55;;;;;;;4.22;3.17;;;;;;;;;;5054480;28;20131;-80
2022/04/11 02:06:21;;;;;;;4.68;3.50;;;;;;;;;;5054422;28;20025;-77
2022/04/11 02:08:47;;;;;;;4.75;3.70;;;;;;;;;;5054324;28;20102;-82
2022/04/11 02:11:13;;;;;;;3.72;3.42;;;;;;;;;;5054056;28;20056;-77
2022/04/11 02:13:41;;;;;;;5.18;3.15;;;;;;;;;;5054313;28;20087;-81
2022/04/11 02:16:08;;;;;;;6.57;3.17;;;;;;;;;;5052962;28;20361;-76
2022/04/11 02:18:34;;;;;;;4.13;3.30;;;;;;;;;;5054157;28;20036;-78
2022/04/11 02:21:00;;;;;;;4.65;3.08;;;;;;;;;;5052804;28;20036;-81
2022/04/11 02:23:26;;;;;;;6.90;3.30;;;;;;;;;;5054041;28;20021;-81
2022/04/11 02:25:52;;;;;;;4.45;2.42;;;;;;;;;;5054027;28;20434;-81
2022/04/11 02:28:18;;;;;;;5.45;3.38;;;;;;;;;;5053990;28;20024;-80
2022/04/11 02:30:44;;;;;;;4.68;3.33;;;;;;;;;;5053938;28;20021;-82
2022/04/11 02:33:10;;;;;;;4.35;3.10;;;;;;;;;;5053916;28;20096;-82
2022/04/11 02:35:36;;;;;;;5.45;3.03;;;;;;;;;;5053831;28;20380;-79
2022/04/11 02:38:03;;;;;;;4.30;2.95;;;;;;;;;;5053915;28;20473;-76
2022/04/11 02:40:29;;;;;;;5.85;3.65;;;;;;;;;;5053602;28;20028;-79
2022/04/11 02:42:56;;;;;;;3.53;2.85;;;;;;;;;;5053742;28;20400;-78
2022/04/11 02:45:23;;;;;;;7.57;3.78;;;;;;;;;;5053770;28;20032;-78
2022/04/11 02:47:49;;;;;;;5.55;3.20;;;;;;;;;;5053595;28;20021;-82
2022/04/11 02:50:15;;;;;;;7.78;3.53;;;;;;;;;;5053588;28;20021;-80
2022/04/11 02:52:41;;;;;;;3.30;2.60;;;;;;;;;;5053562;28;20050;-80
2022/04/11 02:55:08;;;;;;;7.85;3.47;;;;;;;;;;5053658;28;20086;-79
2022/04/11 02:57:36;;;;;;;5.28;4.40;;;;;;;;;;5053664;28;20488;-79
2022/04/11 03:00:04;;;;;;;7.93;3.40;;;;;;;;;;5053228;28;20059;-79
2022/04/11 03:02:30;;;;;;;5.60;3.45;;;;;;;;;;5053420;28;20028;-84
2022/04/11 03:04:56;;;;;;;3.58;3.22;;;;;;;;;;5051937;28;20396;-80
2022/04/11 03:07:22;;;;;;;5.43;3.83;;;;;;;;;;5053419;28;20104;-83
2022/04/11 03:09:48;;;;;;;6.53;3.83;;;;;;;;;;5053342;28;20049;-81
2022/04/11 03:12:14;;;;;;;4.30;3.28;;;;;;;;;;5053384;28;20028;-80
2022/04/11 03:14:41;;;;;;;6.85;4.13;;;;;;;;;;5053021;28;20033;-82
2022/04/11 03:17:07;;;;;;;5.18;3.78;;;;;;;;;;5053435;28;20025;-80
2022/04/11 03:19:33;;;;;;;5.82;4.32;;;;;;;;;;5052058;28;20474;-81
2022/04/11 03:21:59;;;;;;;4.57;4.18;;;;;;;;;;5053264;28;20368;-84
2022/04/11 03:24:25;;;;;;;5.68;4.28;;;;;;;;;;5052223;28;20507;-83
2022/04/11 03:26:54;;;;;;;4.50;4.10;;;;;;;;;;5053374;28;20044;-81
2022/04/11 03:29:21;;;;;;;5.32;4.60;;;;;;;;;;5051949;28;20032;-81
2022/04/11 03:31:48;;;;;;;5.40;4.72;;;;;;;;;;5051934;28;20047;-82
2022/04/11 03:34:14;;;;;;;5.82;4.53;;;;;;;;;;5053162;28;20096;-81
2022/04/11 03:36:40;;;;;;;5.68;4.38;;;;;;;;;;5053286;28;20021;-80
2022/04/11 03:39:06;;;;;;;5.15;4.28;;;;;;;;;;5053100;28;20044;-83
2022/04/11 03:41:33;;;;;;;8.15;4.32;;;;;;;;;;5053860;28;20487;-76
2022/04/11 03:43:59;;;;;;;5.70;4.53;;;;;;;;;;5057114;28;20078;-81
2022/04/11 03:46:27;;;;;;;6.90;5.18;;;;;;;;;;5057259;28;20036;-81
2022/04/11 03:48:53;;;;;;;6.40;5.00;;;;;;;;;;5057104;28;20431;-81
2022/04/11 03:51:20;;;;;;;5.07;4.03;;;;;;;;;;5057101;28;20044;-79
2022/04/11 03:53:47;;;;;;;6.50;3.55;;;;;;;;;;5056117;28;20025;-81
2022/04/11 03:56:14;;;;;;;5.45;4.28;;;;;;;;;;5055523;28;20039;-81
2022/04/11 03:58:41;;;;;;;6.60;4.03;;;;;;;;;;5056260;28;21219;-79
2022/04/11 04:01:07;;;;;;;5.13;3.75;;;;;;;;;;5056761;28;20043;-79
2022/04/11 04:03:33;;;;;;;4.07;3.47;;;;;;;;;;5056628;28;20032;-81
2022/04/11 04:05:59;;;;;;;5.47;4.28;;;;;;;;;;5056637;28;20068;-79
2022/04/11 04:08:25;;;;;;;4.60;3.80;;;;;;;;;;5056752;28;20021;-81
2022/04/11 04:10:51;;;;;;;6.35;3.97;;;;;;;;;;5056351;28;20050;-82
2022/04/11 04:13:17;;;;;;;6.70;4.78;;;;;;;;;;5056573;28;20068;-83
2022/04/11 04:15:44;;;;;;;5.57;4.47;;;;;;;;;;5055208;28;20090;-83
2022/04/11 04:18:11;;;;;;;5.15;4.20;;;;;;;;;;5056552;28;20064;-81
2022/04/11 04:20:38;;;;;;;5.25;4.00;;;;;;;;;;5056452;28;20070;-84
2022/04/11 04:23:04;;;;;;;5.68;4.38;;;;;;;;;;5055073;28;20154;-80
2022/04/11 04:25:31;;;;;;;4.32;3.92;;;;;;;;;;5055809;28;20028;-82
2022/04/11 04:27:57;;;;;;;5.50;4.18;;;;;;;;;;5054986;28;20423;-83
2022/04/11 04:30:23;;;;;;;5.70;4.15;;;;;;;;;;5054750;28;20024;-81
2022/04/11 04:32:49;;;;;;;5.93;4.22;;;;;;;;;;5056103;28;20028;-81
2022/04/11 04:35:16;;;;;;;7.15;4.22;;;;;;;;;;5054910;28;20025;-80
2022/04/11 04:37:42;;;;;;;6.22;4.25;;;;;;;;;;5044233;28;20046;-80
2022/04/11 04:40:09;;;;;;;5.55;3.80;;;;;;;;;;5036244;28;20079;-83
2022/04/11 04:42:35;;;;;;;6.13;4.07;;;;;;;;;;5047892;28;20090;-81
2022/04/11 04:45:05;;;;;;;6.55;4.00;;;;;;;;;;5055260;28;20028;-83
2022/04/11 04:47:31;;;;;;;9.43;3.83;;;;;;;;;;5054924;28;20037;-79
2022/04/11 04:49:58;;;;;;;5.65;3.80;;;;;;;;;;5055696;28;20484;-82
2022/04/11 04:52:26;;;;;;;5.75;3.92;;;;;;;;;;5055221;28;20099;-80
2022/04/11 04:54:52;;;;;;;4.95;4.03;;;;;;;;;;5054701;28;20045;-82
2022/04/11 04:57:18;;;;;;;5.90;4.28;;;;;;;;;;5055648;28;20093;-82
2022/04/11 04:59:44;;;;;;;5.07;3.75;;;;;;;;;;5055428;28;20055;-84
2022/04/11 05:02:11;;;;;;;7.18;4.85;;;;;;;;;;5055194;28;20050;-79
2022/04/11 05:04:37;;;;;;;5.88;4.22;;;;;;;;;;5055391;28;20481;-82
2022/04/11 05:07:06;;;;;;;5.65;4.10;;;;;;;;;;5055448;28;20524;-82
2022/04/11 05:09:32;;;;;;;5.60;3.95;;;;;;;;;;5055178;28;20032;-81
2022/04/11 05:11:58;;;;;;;4.70;3.65;;;;;;;;;;5055267;28;20025;-79
2022/04/11 05:14:25;;;;;;;4.53;3.63;;;;;;;;;;5055314;28;20028;-80
2022/04/11 05:16:52;;;;;;;5.55;4.20;;;;;;;;;;5055173;28;20021;-80
2022/04/11 05:19:18;;;;;;;6.50;4.57;;;;;;;;;;5053960;28;20044;-82
2022/04/11 05:21:44;;;;;;;6.82;3.90;;;;;;;;;;5054871;28;20468;-80
2022/04/11 05:24:10;;;;;;;6.32;4.38;;;;;;;;;;5054806;28;20036;-81
2022/04/11 05:26:36;;;;;;;4.13;3.42;;;;;;;;;;5053155;28;20469;-78
2022/04/11 05:29:04;;;;;;;4.97;3.58;;;;;;;;;;5054974;28;20028;-83
2022/04/11 05:31:30;;;;;;;6.40;4.13;;;;;;;;;;5053031;28;20068;-79
2022/04/11 05:33:56;;;;;;;5.07;3.40;;;;;;;;;;5054501;28;20029;-80
2022/04/11 05:36:22;;;;;;;4.07;3.60;;;;;;;;;;5053935;28;20101;-82
2022/04/11 05:38:48;;;;;;;6.18;3.70;;;;;;;;;;5053413;28;20427;-85
2022/04/11 05:41:15;;;;;;;5.32;3.33;;;;;;;;;;5054486;28;20035;-81
2022/04/11 05:43:41;;;;;;;3.97;3.20;;;;;;;;;;5056963;28;20033;-82
2022/04/11 05:46:08;;;;;;;5.70;3.65;;;;;;;;;;5052813;28;20021;-78
2022/04/11 05:48:35;;;;;;;6.40;4.28;;;;;;;;;;5052203;28;20102;-82
2022/04/11 05:51:01;;;;;;;5.30;3.42;;;;;;;;;;5052761;28;20162;-79
2022/04/11 05:53:28;;;;;;;6.63;3.47;;;;;;;;;;5052891;28;20033;-81
2022/04/11 05:55:54;;;;;;;5.45;3.67;;;;;;;;;;5052670;28;20389;-78
2022/04/11 05:58:20;;;;;;;4.80;3.25;;;;;;;;;;5050573;28;20052;-79
2022/04/11 06:00:46;;;;;;;5.68;3.30;;;;;;;;;;5053540;28;20037;-83
2022/04/11 06:03:13;;;;;;;5.15;3.55;;;;;;;;;;5052633;28;20075;-80
2022/04/11 06:05:40;;;;;;;4.93;3.40;;;;;;;;;;5052666;28;20060;-78
2022/04/11 06:08:06;;;;;;;4.13;3.03;;;;;;;;;;5052701;28;20020;-80
2022/04/11 06:10:32;;;;;;;4.38;3.05;;;;;;;;;;5051753;28;20024;-80
2022/04/11 06:12:58;;;;;;;4.90;2.88;;;;;;;;;;5052475;28;20041;-80
2022/04/11 06:15:24;;;;;;;3.55;2.50;;;;;;;;;;5052252;28;20482;-77
2022/04/11 06:17:50;;;;;;;4.05;2.67;;;;;;;;;;5053236;28;20025;-80
2022/04/11 06:20:17;;;;;;;4.85;3.90;;;;;;;;;;5052442;28;20082;-82
2022/04/11 06:22:45;;;;;;;5.28;3.38;;;;;;;;;;5053057;28;20093;-80
2022/04/11 06:25:11;;;;;;;4.63;3.33;;;;;;;;;;5052238;28;20051;-80
2022/04/11 06:27:37;;;;;;;6.72;3.70;;;;;;;;;;5052658;28;20032;-77
2022/04/11 06:30:04;;;;;;;5.28;3.78;;;;;;;;;;5052406;28;20535;-79
2022/04/11 06:32:31;;;;;;;6.20;4.18;;;;;;;;;;5052399;28;20481;-81
2022/04/11 06:35:00;;;;;;;5.85;3.67;;;;;;;;;;5052349;28;20025;-84
2022/04/11 06:37:26;;;;;;;6.60;4.70;;;;;;;;;;5047702;28;20204;-80
2022/04/11 06:39:53;;;;;;;4.07;2.92;;;;;;;;;;5050651;28;20029;-82
2022/04/11 06:42:19;;;;;;;6.72;4.50;;;;;;;;;;5049323;28;20484;-80
2022/04/11 06:44:45;;;;;;;4.05;3.00;;;;;;;;;;5051023;28;20043;-81
2022/04/11 06:47:12;;;;;;;4.82;4.00;;;;;;;;;;5049056;28;20037;-81
2022/04/11 06:49:38;;;;;;;5.40;4.00;;;;;;;;;;5050285;28;20064;-81
2022/04/11 06:52:05;;;;;;;6.22;3.97;;;;;;;;;;5050743;28;20494;-81
2022/04/11 06:54:32;;;;;;;5.88;3.92;;;;;;;;;;5050563;28;20071;-80
2022/04/11 06:56:58;;;;;;;6.40;3.90;;;;;;;;;;5051160;28;20033;-79
2022/04/11 06:59:24;;;;;;;4.13;2.92;;;;;;;;;;5050649;28;20453;-77
2022/04/11 07:04:38;;;;;;;5.93;4.40;;;;;;;;;;5050372;28;20122;-80
2022/04/11 07:07:04;;;;;;;5.90;3.05;;;;;;;;;;5050605;28;20506;-82
2022/04/11 07:09:31;;;;;;;7.43;4.28;;;;;;;;;;5050605;28;20025;-81
2022/04/11 07:11:57;;;;;;;3.80;3.05;;;;;;;;;;5050168;28;20021;-80
2022/04/11 07:14:26;;;;;;;4.15;2.90;;;;;;;;;;5048682;28;20062;-83
2022/04/11 07:16:53;;;;;;;4.50;3.30;;;;;;;;;;5049208;28;20032;-78
2022/04/11 07:19:20;;;;;;;3.65;2.95;;;;;;;;;;5050533;28;20059;-80
2022/04/11 07:21:46;;;;;;;3.25;2.55;;;;;;;;;;5050735;28;20032;-84
2022/04/11 07:24:13;;;;;;;3.53;2.63;;;;;;;;;;5050764;28;20044;-80
2022/04/11 07:26:40;;;;;;;4.05;3.10;;;;;;;;;;5050230;28;20032;-84
2022/04/11 07:29:07;;;;;;;3.65;2.35;;;;;;;;;;5048499;28;20112;-82
2022/04/11 07:31:33;;;;;;;3.90;3.05;;;;;;;;;;5049863;28;20044;-82
2022/04/11 07:34:01;;;;;;;2.95;2.08;;;;;;;;;;5050924;28;20033;-78
2022/04/11 07:36:37;;;;;;;3.08;1.85;;;;;;;;;;5050709;28;20105;-86
2022/04/11 07:39:07;;;;;;;3.22;2.15;;;;;;;;;;5049309;28;20108;-82
2022/04/11 07:41:34;;;;;;;3.80;1.98;;;;;;;;;;5048350;28;20056;-82
2022/04/11 07:44:03;;;;;;;4.20;1.90;;;;;;;;;;5050499;28;20097;-81
2022/04/11 07:46:29;;;;;;;5.72;3.30;;;;;;;;;;5050910;28;20426;-82
2022/04/11 07:48:55;;;;;;;4.93;2.78;;;;;;;;;;5048665;28;20029;-81
2022/04/11 07:51:21;;;;;;;6.22;3.13;;;;;;;;;;5049487;28;20040;-82
2022/04/11 07:53:47;;;;;;;3.90;2.10;;;;;;;;;;5049006;28;20029;-79
2022/04/11 07:56:14;;;;;;;4.18;2.13;;;;;;;;;;5050479;28;20183;-83
2022/04/11 07:58:40;;;;;;;4.30;2.20;;;;;;;;;;5049457;28;20480;-81
2022/04/11 08:01:16;;;;;;;6.68;3.25;;;;;;;;;;5050348;28;20044;-83
2022/04/11 08:03:43;;;;;;;7.45;2.25;;;;;;;;;;5050013;28;20036;-81
2022/04/11 08:06:09;;;;;;;4.82;2.38;;;;;;;;;;5049075;28;20120;-79
2022/04/11 08:08:35;;;;;;;5.93;2.08;;;;;;;;;;5049726;28;20037;-80
2022/04/11 08:11:01;;;;;;;3.72;2.42;;;;;;;;;;5050361;28;20033;-79
2022/04/11 08:13:27;;;;;;;2.90;1.63;;;;;;;;;;5050063;28;20044;-80
2022/04/11 08:15:59;;;;;;;3.15;1.58;;;;;;;;;;5046817;28;20040;-86
2022/04/11 08:18:25;;;;;;;4.43;1.77;;;;;;;;;;5046644;28;20033;-78
2022/04/11 08:20:51;;;;;;;2.97;1.92;;;;;;;;;;5050128;28;20051;-80
2022/04/11 08:23:22;;;;;;;5.45;3.60;;;;;;;;;;5049042;28;20032;-77
2022/04/11 08:25:49;;;;;;;2.97;1.20;;;;;;;;;;5048027;28;20025;-79
2022/04/11 08:28:16;;;;;;;3.58;1.92;;;;;;;;;;5048524;28;20687;-80
2022/04/11 08:30:43;;;;;;;5.32;2.47;;;;;;;;;;5049366;28;20048;-80
2022/04/11 08:33:19;;;;;;;;;;;;;;;;;;;;;
2022/04/11 08:35:46;;;;;;;5.10;3.47;;;;;;;;;;5053092;28;20025;-78
2022/04/11 08:38:12;;;;;;;4.70;2.83;;;;;;;;;;5051470;28;20026;-79
2022/04/11 08:40:39;;;;;;;7.70;3.35;;;;;;;;;;5050305;28;20040;-79
2022/04/11 08:43:05;;;;;;;4.15;2.53;;;;;;;;;;5053126;28;20108;-79
2022/04/11 08:45:32;;;;;;;3.88;2.50;;;;;;;;;;5053400;28;20029;-77
2022/04/11 08:48:00;;;;;;;2.28;1.55;;;;;;;;;;5057655;28;20062;-77
2022/04/11 08:50:27;;;;;;;3.38;1.73;;;;;;;;;;5071858;28;20495;-77
2022/04/11 08:52:56;;;;;;;4.30;2.25;;;;;;;;;;5073322;28;20434;-79
2022/04/11 08:55:22;;;;;;;3.88;2.15;;;;;;;;;;5068357;28;20039;-80
2022/04/11 08:57:49;;;;;;;1.98;1.27;;;;;;;;;;5052812;28;20033;-80
2022/04/11 09:00:18;;;;;;;3.63;2.20;;;;;;;;;;5051279;28;20049;-74
2022/04/11 09:02:45;;;;;;;5.47;1.85;;;;;;;;;;5052821;28;20037;-80
2022/04/11 09:05:12;;;;;;;3.70;1.40;;;;;;;;;;5052463;28;20025;-77
2022/04/11 09:07:46;;;;;;;3.40;2.50;;;;;;;;;;5052846;28;20143;-78
2022/04/11 09:10:12;;;;;;;2.78;1.60;;;;;;;;;;5052267;28;20480;-78
2022/04/11 09:12:49;;;;;;;4.05;1.85;;;;;;;;;;5052756;28;20041;-79
2022/04/11 09:15:15;;;;;;;3.13;1.58;;;;;;;;;;5052041;28;20040;-78
2022/04/11 09:17:42;;;;;;;3.58;2.67;;;;;;;;;;5052503;28;20033;-79
2022/04/11 09:20:12;;;;;;;2.65;1.58;;;;;;;;;;5051462;28;20066;-80
2022/04/11 09:22:39;;;;;;;5.07;3.08;;;;;;;;;;5053145;28;20052;-77
2022/04/11 09:25:12;;;;;;;3.63;2.35;;;;;;;;;;5052366;28;20156;-78
2022/04/11 09:27:38;;;;;;;3.60;2.05;;;;;;;;;;5038813;28;20392;-77
2022/04/11 09:30:22;;;;;;;5.63;2.30;;;;;;;;;;5032178;28;20028;-78
2022/04/11 09:32:51;;;;;;;3.45;1.38;;;;;;;;;;5035738;28;20045;-79
2022/04/11 09:35:21;;;;;;;1.75;1.00;;;;;;;;;;5050220;28;20029;-76
2022/04/11 09:37:48;;;;;;;2.13;1.10;;;;;;;;;;5050772;28;20407;-76
2022/04/11 09:40:21;;;;;;;1.50;1.30;;;;;;;;;;5047764;28;20112;-79
2022/04/11 09:42:57;;;;;;;1.20;0.90;;;;;;;;;;5050716;28;20414;-78
2022/04/11 09:45:25;;;;;;;1.35;1.00;;;;;;;;;;5051812;28;20078;-80
2022/04/11 09:48:01;;;;;;;2.70;1.70;;;;;;;;;;5051629;28;20056;-76
2022/04/11 09:50:33;;;;;;;3.88;1.00;;;;;;;;;;5050928;28;20366;-80
2022/04/11 09:53:17;;;;;;;3.38;1.70;;;;;;;;;;5050868;28;20033;-76
2022/04/11 09:55:45;;;;;;;2.03;0.90;;;;;;;;;;5050389;28;20029;-79
2022/04/11 09:58:11;;;;;;;4.22;1.75;;;;;;;;;;5050563;28;20115;-78
2022/04/11 10:00:47;;;;;;;3.85;1.50;;;;;;;;;;5050428;28;20049;-81
2022/04/11 10:03:13;;;;;;;5.15;2.88;;;;;;;;;;5051866;28;20031;-78
2022/04/11 10:05:44;;;;;;;2.83;1.35;;;;;;;;;;5052041;28;20135;-76
2022/04/11 10:08:16;;;;;;;91.78;29.02;;;;;;;;;;5051790;28;20025;-81
2022/04/11 10:10:48;;;;;;;3.90;1.52;;;;;;;;;;5049989;28;20587;-80
2022/04/11 10:13:15;;;;;;;3.17;1.63;;;;;;;;;;5050491;28;20069;-77
2022/04/11 10:15:41;;;;;;;3.40;1.63;;;;;;;;;;5051498;28;20079;-81
2022/04/11 10:18:10;;;;;;;3.13;2.35;;;;;;;;;;5050332;28;20055;-77
2022/04/11 10:20:40;;;;;;;2.88;2.03;;;;;;;;;;5050724;28;20029;-77
2022/04/11 10:23:25;;;;;;;3.30;1.42;;;;;;;;;;5051255;28;20052;-78
2022/04/11 10:25:51;;;;;;;;;;;;;;;;;;5044893;28;20033;-82
2022/04/11 10:28:19;;;;;;;3.97;2.17;;;;;;;;;;5047522;28;20003;-79
2022/04/11 10:30:46;;;;;;;2.67;1.67;;;;;;;;;;5051454;28;20376;-76
2022/04/11 10:33:12;;;;;;;3.42;2.03;;;;;;;;;;5051273;28;20025;-79
2022/04/11 10:35:45;;;;;;;1.30;1.20;;;;;;;;;;5051268;28;20412;-76
2022/04/11 10:38:12;;;;;;;4.45;2.55;;;;;;;;;;5050398;28;20020;-77
2022/04/11 10:40:39;;;;;;;2.88;2.03;;;;;;;;;;5047559;28;20020;-77
2022/04/11 10:43:08;;;;;;;3.50;1.70;;;;;;;;;;5050665;28;20104;-80
2022/04/11 10:45:35;;;;;;;3.17;1.27;;;;;;;;;;5050541;28;20013;-79
2022/04/11 10:48:01;;;;;;;1.75;1.13;;;;;;;;;;5050656;28;20464;-78
2022/04/11 10:50:32;;;;;;;2.72;1.48;;;;;;;;;;5050487;28;20029;-76
2022/04/11 10:53:23;;;;;;;2.80;1.60;;;;;;;;;;5031573;28;20568;-79
2022/04/11 10:55:58;;;;;;;2.17;1.40;;;;;;;;;;5049685;28;20032;-81
2022/04/11 10:58:40;;;;;;;6.25;3.58;;;;;;;;;;5046069;28;20029;-79
2022/04/11 11:01:06;;;;;;;3.28;1.05;;;;;;;;;;5047764;28;20021;-80
2022/04/11 11:03:32;;;;;;;1.33;0.90;;;;;;;;;;5049767;28;20025;-77
2022/04/11 11:06:15;;;;;;;3.67;1.80;;;;;;;;;;5049617;28;20025;-78
2022/04/11 11:08:48;;;;;;;2.88;2.10;;;;;;;;;;5045162;28;20025;-79
2022/04/11 11:11:20;;;;;;;2.50;1.23;;;;;;;;;;5050074;28;20107;-79
2022/04/11 11:13:50;;;;;;;2.15;1.30;;;;;;;;;;5048022;28;20036;-80
2022/04/11 11:16:17;;;;;;;4.80;1.50;;;;;;;;;;5049879;28;20403;-82
2022/04/11 11:18:43;;;;;;;6.78;3.25;;;;;;;;;;5050401;28;20017;-78
2022/04/11 11:21:10;;;;;;;2.78;1.00;;;;;;;;;;5050237;28;20091;-82
2022/04/11 11:23:36;;;;;;;1.38;0.80;;;;;;;;;;5050095;28;20029;-79
2022/04/11 11:26:12;;;;;;;3.05;0.98;;;;;;;;;;5050386;28;20036;-79
2022/04/11 11:28:44;;;;;;;4.85;2.15;;;;;;;;;;5050567;28;20083;-80
2022/04/11 11:31:11;;;;;;;3.05;1.92;;;;;;;;;;5050668;28;20025;-81
2022/04/11 11:33:37;;;;;;;3.33;1.30;;;;;;;;;;5049465;28;20036;-79
2022/04/11 11:36:04;;;;;;;2.90;1.65;;;;;;;;;;5050581;28;20063;-79
2022/04/11 11:38:31;;;;;;;6.90;2.60;;;;;;;;;;5048712;28;20108;-79
2022/04/11 11:41:01;;;;;;;3.25;1.75;;;;;;;;;;5048936;28;20388;-79
2022/04/11 11:43:28;;;;;;;2.75;1.73;;;;;;;;;;5050611;28;20160;-82
2022/04/11 11:45:58;;;;;;;2.47;1.20;;;;;;;;;;5050261;28;20067;-82
2022/04/11 11:48:28;;;;;;;1.90;0.88;;;;;;;;;;5048640;28;20029;-81
2022/04/11 11:50:58;;;;;;;2.42;1.00;;;;;;;;;;5045051;28;20022;-79
2022/04/11 11:53:25;;;;;;;2.10;1.40;;;;;;;;;;5040502;28;20416;-80
2022/04/11 11:55:58;;;;;;;2.47;1.40;;;;;;;;;;5046700;28;20032;-80
2022/04/11 11:58:43;;;;;;;2.28;1.17;;;;;;;;;;5048892;28;20369;-78
2022/04/11 12:01:13;;;;;;;3.33;1.33;;;;;;;;;;5049362;28;20017;-81
2022/04/11 12:06:33;;;;;;;3.00;1.17;;;;;;;;;;5054387;28;20091;-85
2022/04/11 12:09:01;;;;;;;2.25;1.25;;;;;;;;;;5055054;28;20024;-79
2022/04/11 12:11:28;;;;;;;3.50;2.50;;;;;;;;;;5054773;28;20054;-79
2022/04/11 12:14:12;;;;;;;3.00;0.95;;;;;;;;;;5053783;28;20429;-83
2022/04/11 12:16:39;;;;;;;6.50;3.23;;;;;;;;;;5053858;28;20056;-79
2022/04/11 12:19:06;;;;;;;3.40;1.83;;;;;;;;;;5054425;28;20036;-80
2022/04/11 12:21:32;;;;;;;2.78;1.80;;;;;;;;;;5053380;28;20029;-81
2022/04/11 12:23:58;;;;;;;2.20;1.15;;;;;;;;;;5054207;28;20033;-82
2022/04/11 12:26:43;;;;;;;1.15;0.60;;;;;;;;;;5054390;28;20472;-80
2022/04/11 12:29:10;;;;;;;3.35;1.50;;;;;;;;;;5054596;28;20151;-78
2022/04/11 12:31:39;;;;;;;1.88;0.95;;;;;;;;;;5053828;28;20029;-79
2022/04/11 12:34:12;;;;;;;5.30;3.25;;;;;;;;;;5053984;28;20032;-79
2022/04/11 12:36:58;;;;;;;5.93;3.08;;;;;;;;;;5054217;28;20375;-79
2022/04/11 12:39:25;;;;;;;2.15;1.20;;;;;;;;;;5054019;28;20025;-78
2022/04/11 12:41:52;;;;;;;2.80;1.45;;;;;;;;;;5051820;28;20431;-78
2022/04/11 12:44:22;;;;;;;7.75;3.10;;;;;;;;;;5052581;28;20388;-79
2022/04/11 12:47:07;;;;;;;4.28;2.17;;;;;;;;;;5053667;28;20392;-72
2022/04/11 12:49:54;;;;;;;2.10;0.70;;;;;;;;;;5053967;28;20029;-72
2022/04/11 12:52:21;;;;;;;1.63;0.75;;;;;;;;;;5045639;28;20492;-69
2022/04/11 12:54:51;;;;;;;2.35;0.90;;;;;;;;;;5044800;28;20039;-69
2022/04/11 12:57:21;;;;;;;4.40;2.33;;;;;;;;;;5054550;28;20021;-71
2022/04/11 12:59:47;;;;;;;3.97;1.98;;;;;;;;;;5052792;28;20086;-70
2022/04/11 13:02:20;;;;;;;2.65;1.30;;;;;;;;;;5051777;28;20500;-81
2022/04/11 13:04:52;;;;;;;5.28;1.90;;;;;;;;;;5051615;28;20025;-82
2022/04/11 13:07:18;;;;;;;2.60;0.90;;;;;;;;;;5053591;28;20723;-79
2022/04/11 13:09:45;;;;;;;2.33;1.27;;;;;;;;;;5053595;28;20033;-79
2022/04/11 13:12:12;;;;;;;2.65;0.77;;;;;;;;;;5052276;28;20044;-81
2022/04/11 13:14:39;;;;;;;2.83;1.00;;;;;;;;;;5048928;28;20039;-80
2022/04/11 13:19:50;;;;;;;4.57;2.63;;;;;;;;;;5053003;28;20094;-79
2022/04/11 13:22:16;;;;;;;5.10;3.13;;;;;;;;;;5051149;28;20032;-79
2022/04/11 13:24:42;;;;;;;3.72;1.70;;;;;;;;;;5052194;28;20028;-81
2022/04/11 13:27:09;;;;;;;6.60;3.13;;;;;;;;;;5053023;28;20028;-79
2022/04/11 13:29:35;;;;;;;4.45;2.90;;;;;;;;;;5051327;28;20029;-80
2022/04/11 13:32:01;;;;;;;5.28;3.30;;;;;;;;;;5050047;28;20075;-76
2022/04/11 13:34:27;;;;;;;10.30;4.60;;;;;;;;;;5053150;28;20437;-77
2022/04/11 13:36:53;;;;;;;6.18;3.85;;;;;;;;;;5051091;28;20565;-66
2022/04/11 13:39:19;;;;;;;6.75;4.88;;;;;;;;;;5053363;28;20033;-79
2022/04/11 13:44:58;;;;;;;7.35;5.30;;;;;;;;;;5051498;28;20040;-76
2022/04/11 13:47:24;;;;;;;4.97;3.53;;;;;;;;;;5053846;28;20035;-80
2022/04/11 13:49:50;;;;;;;4.03;2.55;;;;;;;;;;5052805;28;20025;-78
2022/04/11 13:52:18;;;;;;;5.85;1.90;;;;;;;;;;5052499;28;20087;-77
2022/04/11 13:54:44;;;;;;;5.93;4.10;;;;;;;;;;5053612;28;20025;-79
2022/04/11 13:57:11;;;;;;;5.85;4.00;;;;;;;;;;5053056;28;20032;-78
2022/04/11 13:59:39;;;;;;;8.30;7.18;;;;;;;;;;5053029;28;20098;-79
2022/04/11 14:02:05;;;;;;;4.32;2.95;;;;;;;;;;5052935;28;20465;-78
2022/04/11 14:04:31;;;;;;;4.28;3.15;;;;;;;;;;5052352;28;20479;-78
2022/04/11 14:06:57;;;;;;;5.05;3.08;;;;;;;;;;5052791;28;20037;-78
2022/04/11 14:09:23;;;;;;;6.68;3.90;;;;;;;;;;5051377;28;20373;-77
2022/04/11 14:11:49;;;;;;;3.72;2.42;;;;;;;;;;5052507;28;20037;-79
2022/04/11 14:14:15;;;;;;;3.72;2.70;;;;;;;;;;5052790;28;20392;-82
2022/04/11 14:16:41;;;;;;;4.63;3.67;;;;;;;;;;5051227;28;20033;-78
2022/04/11 14:19:07;;;;;;;4.90;2.88;;;;;;;;;;5051710;28;20064;-78
2022/04/11 14:21:34;;;;;;;5.00;2.97;;;;;;;;;;5052674;28;20111;-76
2022/04/11 14:24:00;;;;;;;5.20;3.13;;;;;;;;;;5052965;28;20068;-78
2022/04/11 14:26:26;;;;;;;3.40;2.30;;;;;;;;;;5051237;28;20032;-79
2022/04/11 14:28:52;;;;;;;9.75;5.13;;;;;;;;;;5052894;28;20025;-78
2022/04/11 14:31:19;;;;;;;8.93;4.90;;;;;;;;;;5052846;28;20029;-77
2022/04/11 14:33:45;;;;;;;5.38;2.88;;;;;;;;;;5051758;28;20021;-78
2022/04/11 14:36:11;;;;;;;5.18;2.70;;;;;;;;;;5051822;28;20025;-78
2022/04/11 14:38:39;;;;;;;3.95;2.60;;;;;;;;;;5051919;28;20025;-77
2022/04/11 14:41:06;;;;;;;4.57;2.65;;;;;;;;;;5052577;28;20025;-79
2022/04/11 14:43:34;;;;;;;6.18;3.92;;;;;;;;;;5050598;28;20029;-79
2022/04/11 14:46:00;;;;;;;4.15;2.80;;;;;;;;;;5052148;28;20036;-77
2022/04/11 14:48:47;;;;;;;;;;;;;;;;;;;;;
2022/04/11 14:51:16;;;;;;;5.63;3.47;;;;;;;;;;5051658;28;20025;-77
2022/04/11 14:53:43;;;;;;;4.05;1.95;;;;;;;;;;5052225;28;20025;-78
2022/04/11 14:56:28;;;;;;;5.53;3.78;;;;;;;;;;5010282;28;20038;-77
2022/04/11 14:58:54;;;;;;;5.43;3.25;;;;;;;;;;5010493;28;20452;-78
2022/04/11 15:01:22;;;;;;;6.22;4.45;;;;;;;;;;5010705;28;20165;-77